createdAt,value
2019-05-30T00:02:15.797Z,4.07
2019-05-30T00:04:46.004Z,4.40
2019-05-30T00:07:16.162Z,4.80
2019-05-30T00:09:46.351Z,4.50
2019-05-30T00:12:16.504Z,4.77
2019-05-30T00:14:46.788Z,4.73
2019-05-30T00:17:17.995Z,4.73
2019-05-30T00:19:50.120Z,4.80
2019-05-30T00:22:20.275Z,5.00
2019-05-30T00:24:50.521Z,4.40
2019-05-30T00:27:20.748Z,4.50
2019-05-30T00:29:51.991Z,5.00
2019-05-30T00:32:22.144Z,4.80
2019-05-30T00:34:52.299Z,4.50
2019-05-30T00:37:22.444Z,4.53
2019-05-30T00:39:52.659Z,4.60
2019-05-30T00:42:22.916Z,5.03
2019-05-30T00:44:53.047Z,4.53
2019-05-30T00:47:23.187Z,4.30
2019-05-30T00:49:53.459Z,4.47
2019-05-30T00:52:24.779Z,4.73
2019-05-30T00:54:54.936Z,5.37
2019-05-30T00:57:25.130Z,4.87
2019-05-30T00:59:56.557Z,3.93
2019-05-30T01:02:26.819Z,4.87
2019-05-30T01:04:57.009Z,4.67
2019-05-30T01:07:27.197Z,4.13
2019-05-30T01:09:57.351Z,4.80
2019-05-30T01:12:27.503Z,4.30
2019-05-30T01:14:58.875Z,4.20
2019-05-30T01:17:29.143Z,4.67
2019-05-30T01:19:59.315Z,4.30
2019-05-30T01:22:29.492Z,5.00
2019-05-30T01:24:59.667Z,3.80
2019-05-30T01:27:29.815Z,4.37
2019-05-30T01:30:00.004Z,4.30
2019-05-30T01:32:30.579Z,3.97
2019-05-30T01:35:01.920Z,3.93
2019-05-30T01:37:32.473Z,4.03
2019-05-30T01:40:03.901Z,3.30
2019-05-30T01:42:34.523Z,3.57
2019-05-30T01:45:06.257Z,3.23
2019-05-30T01:47:36.577Z,4.03
2019-05-30T01:50:06.988Z,3.47
2019-05-30T01:52:38.428Z,3.07
2019-05-30T01:55:09.107Z,3.30
2019-05-30T01:57:39.487Z,3.03
2019-05-30T02:00:19.817Z,3.13
2019-05-30T02:02:42.639Z,3.30
2019-05-30T02:05:13.853Z,3.27
2019-05-30T02:07:44.009Z,3.07
2019-05-30T02:10:15.772Z,3.17
2019-05-30T02:12:45.931Z,3.00
2019-05-30T02:15:16.250Z,3.10
2019-05-30T02:17:46.491Z,3.10
2019-05-30T02:20:17.839Z,3.10
2019-05-30T02:22:47.995Z,3.20
2019-05-30T02:25:18.150Z,3.30
2019-05-30T02:27:48.459Z,2.90
2019-05-30T02:30:19.840Z,2.90
2019-05-30T02:32:49.988Z,3.13
2019-05-30T02:35:20.143Z,2.50
2019-05-30T02:37:50.288Z,2.80
2019-05-30T02:40:21.653Z,2.50
2019-05-30T02:42:51.908Z,2.97
2019-05-30T02:45:22.053Z,2.63
2019-05-30T02:47:52.213Z,2.70
2019-05-30T02:50:22.462Z,2.47
2019-05-30T02:52:52.603Z,2.73
2019-05-30T02:55:22.715Z,2.20
2019-05-30T02:57:52.865Z,2.53
2019-05-30T03:00:36.145Z,2.80
2019-05-30T03:03:09.144Z,2.53
2019-05-30T03:05:38.351Z,2.47
2019-05-30T03:08:11.454Z,2.43
2019-05-30T03:10:42.253Z,2.40
2019-05-30T03:13:13.040Z,3.13
2019-05-30T03:15:43.667Z,3.00
2019-05-30T03:18:14.979Z,2.43
2019-05-30T03:20:45.587Z,2.70
2019-05-30T03:23:15.918Z,2.67
2019-05-30T03:25:46.217Z,2.77
2019-05-30T03:28:17.352Z,2.70
2019-05-30T03:30:47.512Z,2.50
2019-05-30T03:33:36.001Z,2.37
2019-05-30T03:35:49.615Z,2.10
2019-05-30T03:38:19.944Z,2.47
2019-05-30T03:40:50.786Z,2.93
2019-05-30T03:43:20.950Z,2.67
2019-05-30T03:45:51.696Z,2.60
2019-05-30T03:48:23.557Z,2.37
2019-05-30T03:50:55.618Z,2.73
2019-05-30T03:53:25.890Z,2.40
2019-05-30T03:56:02.133Z,2.40
2019-05-30T03:58:44.039Z,2.10
2019-05-30T04:01:18.699Z,2.30
2019-05-30T04:03:59.681Z,2.40
2019-05-30T04:06:33.295Z,2.40
2019-05-30T04:09:09.613Z,2.33
2019-05-30T04:11:43.600Z,2.20
2019-05-30T04:14:19.363Z,2.80
2019-05-30T04:16:50.587Z,2.20
2019-05-30T04:19:20.759Z,2.80
2019-05-30T04:21:50.907Z,2.40
2019-05-30T04:24:21.096Z,2.00
2019-05-30T04:26:51.311Z,2.23
2019-05-30T04:29:21.652Z,2.57
2019-05-30T04:31:51.793Z,2.83
2019-05-30T04:34:22.549Z,2.10
2019-05-30T04:36:53.539Z,2.30
2019-05-30T04:39:24.025Z,2.00
2019-05-30T04:41:54.169Z,1.73
2019-05-30T04:44:24.413Z,2.13
2019-05-30T04:46:54.601Z,2.43
2019-05-30T04:49:24.783Z,2.23
2019-05-30T04:51:54.911Z,2.40
2019-05-30T04:54:25.155Z,1.90
2019-05-30T04:56:55.313Z,1.97
2019-05-30T04:59:25.553Z,2.60
2019-05-30T05:01:55.741Z,2.00
2019-05-30T05:04:26.967Z,2.10
2019-05-30T05:06:57.148Z,2.20
2019-05-30T05:09:27.280Z,2.20
2019-05-30T05:11:57.649Z,2.30
2019-05-30T05:14:27.791Z,2.27
2019-05-30T05:16:57.932Z,2.60
2019-05-30T05:19:28.101Z,2.10
2019-05-30T05:21:58.333Z,2.00
2019-05-30T05:24:28.500Z,2.27
2019-05-30T05:26:58.731Z,1.83
2019-05-30T05:29:28.920Z,2.60
2019-05-30T05:31:59.099Z,2.80
2019-05-30T05:34:29.269Z,2.77
2019-05-30T05:36:59.449Z,2.20
2019-05-30T05:39:29.615Z,2.33
2019-05-30T05:41:59.778Z,2.67
2019-05-30T05:44:29.932Z,2.60
2019-05-30T05:47:01.182Z,2.50
2019-05-30T05:49:31.317Z,2.20
2019-05-30T05:52:01.475Z,2.40
2019-05-30T05:54:31.652Z,2.33
2019-05-30T05:57:01.786Z,2.77
2019-05-30T05:59:31.954Z,3.53
2019-05-30T06:02:02.113Z,2.20
2019-05-30T06:04:33.347Z,3.00
2019-05-30T06:07:03.527Z,2.77
2019-05-30T06:09:33.680Z,2.90
2019-05-30T06:12:03.844Z,2.43
2019-05-30T06:14:34.028Z,2.93
2019-05-30T06:17:04.210Z,3.07
2019-05-30T06:19:45.760Z,2.40
2019-05-30T06:22:08.017Z,2.80
2019-05-30T06:24:38.188Z,2.60
2019-05-30T06:27:08.344Z,2.67
2019-05-30T06:29:38.622Z,2.50
2019-05-30T06:32:08.815Z,2.87
2019-05-30T06:34:40.033Z,2.80
2019-05-30T06:37:12.171Z,3.00
2019-05-30T06:39:42.752Z,3.10
2019-05-30T06:42:12.978Z,3.43
2019-05-30T06:44:44.444Z,2.97
2019-05-30T06:47:14.612Z,3.30
2019-05-30T06:49:45.944Z,2.93
2019-05-30T06:52:16.158Z,3.40
2019-05-30T06:54:46.380Z,2.40
2019-05-30T06:57:16.659Z,2.80
2019-05-30T06:59:46.924Z,3.30
2019-05-30T07:02:17.129Z,3.30
2019-05-30T07:04:52.046Z,3.80
2019-05-30T07:07:19.415Z,3.03
2019-05-30T07:09:49.840Z,3.43
2019-05-30T07:12:20.009Z,3.70
2019-05-30T07:14:50.193Z,4.30
2019-05-30T07:17:20.408Z,4.00
2019-05-30T07:19:50.576Z,4.43
2019-05-30T07:22:20.804Z,3.80
2019-05-30T07:24:51.052Z,2.83
2019-05-30T07:27:21.377Z,4.00
2019-05-30T07:29:51.724Z,3.20
2019-05-30T07:32:24.007Z,4.40
2019-05-30T07:35:06.107Z,4.10
2019-05-30T07:37:26.324Z,4.80
2019-05-30T07:39:56.507Z,4.10
2019-05-30T07:42:30.729Z,4.77
2019-05-30T07:45:00.987Z,5.47
2019-05-30T07:47:32.153Z,3.80
2019-05-30T07:50:02.375Z,5.90
2019-05-30T07:52:32.735Z,5.60
2019-05-30T07:55:02.933Z,4.23
2019-05-30T07:57:34.569Z,3.80
2019-05-30T08:00:07.034Z,3.00
2019-05-30T08:02:37.980Z,3.27
2019-05-30T08:05:23.399Z,3.00
2019-05-30T08:07:42.108Z,3.60
2019-05-30T08:10:13.728Z,3.73
2019-05-30T08:12:45.009Z,5.17
2019-05-30T08:15:16.053Z,3.20
2019-05-30T08:17:46.216Z,3.60
2019-05-30T08:20:18.409Z,3.23
2019-05-30T08:22:48.604Z,4.27
2019-05-30T08:25:18.784Z,3.97
2019-05-30T08:27:48.955Z,4.17
2019-05-30T08:30:20.743Z,5.50
2019-05-30T08:32:51.054Z,4.30
2019-05-30T08:35:21.282Z,4.33
2019-05-30T08:37:51.575Z,3.00
2019-05-30T08:40:21.843Z,4.30
2019-05-30T08:42:52.034Z,3.80
2019-05-30T08:45:22.421Z,3.80
2019-05-30T08:47:52.592Z,3.83
2019-05-30T08:50:25.758Z,4.03
2019-05-30T08:52:55.983Z,4.10
2019-05-30T08:55:26.216Z,4.33
2019-05-30T08:57:56.420Z,3.90
2019-05-30T09:00:27.952Z,3.10
2019-05-30T09:02:58.617Z,3.90
2019-05-30T09:05:29.106Z,3.87
2019-05-30T09:07:59.467Z,3.27
2019-05-30T09:10:29.629Z,3.60
2019-05-30T09:12:59.808Z,3.70
2019-05-30T09:15:30.572Z,3.57
2019-05-30T09:18:00.735Z,3.37
2019-05-30T09:20:31.111Z,3.67
2019-05-30T09:23:01.748Z,4.00
2019-05-30T09:25:31.964Z,3.40
2019-05-30T09:28:02.199Z,3.30
2019-05-30T09:30:32.546Z,4.00
2019-05-30T09:33:02.784Z,3.23
2019-05-30T09:35:33.024Z,3.10
2019-05-30T09:38:03.220Z,3.87
2019-05-30T09:40:35.098Z,3.90
2019-05-30T09:43:06.472Z,3.80
2019-05-30T09:45:36.612Z,3.90
2019-05-30T09:48:06.761Z,3.57
2019-05-30T09:50:36.967Z,3.93
2019-05-30T09:53:07.144Z,3.27
2019-05-30T09:55:37.381Z,3.53
2019-05-30T09:58:07.551Z,3.63
2019-05-30T10:00:37.719Z,4.10
2019-05-30T10:03:08.241Z,3.83
2019-05-30T10:05:38.388Z,3.70
2019-05-30T10:08:08.772Z,3.57
2019-05-30T10:10:38.968Z,3.63
2019-05-30T10:13:10.231Z,3.50
2019-05-30T10:15:40.528Z,3.70
2019-05-30T10:18:10.823Z,3.83
2019-05-30T10:20:40.989Z,3.97
2019-05-30T10:23:12.255Z,3.20
2019-05-30T10:25:42.451Z,3.93
2019-05-30T10:28:12.663Z,3.80
2019-05-30T10:30:42.887Z,4.20
2019-05-30T10:33:13.076Z,3.67
2019-05-30T10:35:45.635Z,4.47
2019-05-30T10:38:15.163Z,3.90
2019-05-30T10:40:46.989Z,4.07
2019-05-30T10:43:17.613Z,4.00
2019-05-30T10:45:48.233Z,4.27
2019-05-30T10:48:20.886Z,4.00
2019-05-30T10:50:52.275Z,4.40
2019-05-30T10:53:22.556Z,4.17
2019-05-30T10:55:53.617Z,4.00
2019-05-30T10:58:24.636Z,4.00
2019-05-30T11:00:57.805Z,4.07
2019-05-30T11:03:28.578Z,4.13
2019-05-30T11:06:06.797Z,3.90
2019-05-30T11:08:39.274Z,4.80
2019-05-30T11:11:09.555Z,4.17
2019-05-30T11:13:39.692Z,4.53
2019-05-30T11:16:09.950Z,3.70
2019-05-30T11:18:40.263Z,4.13
2019-05-30T11:21:10.423Z,4.40
2019-05-30T11:23:40.781Z,4.33
2019-05-30T11:26:10.988Z,4.00
2019-05-30T11:28:41.220Z,4.53
2019-05-30T11:31:11.769Z,5.23
2019-05-30T11:33:41.984Z,4.53
2019-05-30T11:36:12.174Z,3.97
2019-05-30T11:38:42.318Z,4.37
2019-05-30T11:41:12.553Z,4.70
2019-05-30T11:43:42.915Z,4.87
2019-05-30T11:46:14.221Z,4.93
2019-05-30T11:48:44.460Z,4.37
2019-05-30T11:51:14.694Z,4.87
2019-05-30T11:53:44.928Z,5.10
2019-05-30T11:56:15.093Z,4.80
2019-05-30T11:58:45.260Z,5.03
2019-05-30T12:01:15.448Z,4.80
2019-05-30T12:03:45.688Z,5.43
2019-05-30T12:06:15.851Z,4.30
2019-05-30T12:08:46.128Z,4.90
2019-05-30T12:11:16.304Z,5.10
2019-05-30T12:13:46.543Z,5.33
2019-05-30T12:16:16.706Z,4.70
2019-05-30T12:18:47.016Z,5.57
2019-05-30T12:21:17.300Z,5.20
2019-05-30T12:23:47.518Z,5.10
2019-05-30T12:26:17.663Z,5.73
2019-05-30T12:28:48.002Z,6.30
2019-05-30T12:31:18.189Z,5.53
2019-05-30T12:33:48.391Z,5.87
2019-05-30T12:36:19.768Z,6.13
2019-05-30T12:38:50.163Z,5.17
2019-05-30T12:41:20.355Z,5.20
2019-05-30T12:43:53.020Z,5.40
2019-05-30T12:46:23.429Z,5.13
2019-05-30T12:48:53.649Z,5.80
2019-05-30T12:51:23.832Z,5.43
2019-05-30T12:53:54.352Z,5.83
2019-05-30T12:56:25.499Z,6.20
2019-05-30T12:58:56.570Z,5.93
2019-05-30T13:01:27.453Z,5.93
2019-05-30T13:03:58.916Z,6.07
2019-05-30T13:06:29.218Z,7.10
2019-05-30T13:08:59.516Z,5.43
2019-05-30T13:11:29.740Z,6.90
2019-05-30T13:14:00.670Z,6.07
2019-05-30T13:16:31.183Z,5.63
2019-05-30T13:19:02.257Z,6.13
2019-05-30T13:21:32.745Z,5.93
2019-05-30T13:24:03.799Z,5.97
2019-05-30T13:26:34.228Z,7.80
2019-05-30T13:29:04.487Z,6.43
2019-05-30T13:31:34.815Z,6.80
2019-05-30T13:34:05.175Z,6.03
2019-05-30T13:36:35.564Z,6.20
2019-05-30T13:39:07.496Z,6.80
2019-05-30T13:41:38.099Z,6.90
2019-05-30T13:44:09.751Z,6.40
2019-05-30T13:46:40.222Z,5.00
2019-05-30T13:49:10.380Z,6.67
2019-05-30T13:51:40.568Z,5.97
2019-05-30T13:54:10.855Z,5.60
2019-05-30T13:56:41.061Z,6.00
2019-05-30T13:59:11.211Z,6.20
2019-05-30T14:01:41.441Z,5.80
2019-05-30T14:04:11.759Z,5.90
2019-05-30T14:06:41.944Z,6.33
2019-05-30T14:09:12.111Z,6.30
2019-05-30T14:11:42.404Z,5.77
2019-05-30T14:14:12.589Z,5.70
2019-05-30T14:16:42.792Z,6.00
2019-05-30T14:19:13.303Z,6.40
2019-05-30T14:21:43.537Z,5.80
2019-05-30T14:24:14.786Z,6.03
2019-05-30T14:26:46.340Z,6.60
2019-05-30T14:29:16.499Z,6.10
2019-05-30T14:31:46.715Z,6.50
2019-05-30T14:34:16.996Z,5.83
2019-05-30T14:36:47.216Z,5.57
2019-05-30T14:39:17.404Z,5.50
2019-05-30T14:41:47.676Z,5.70
2019-05-30T14:44:17.848Z,5.70
2019-05-30T14:46:48.140Z,5.53
2019-05-30T14:49:18.281Z,5.90
2019-05-30T14:51:48.632Z,5.37
2019-05-30T14:54:21.916Z,5.40
2019-05-30T14:56:52.139Z,5.53
2019-05-30T14:59:23.469Z,4.80
2019-05-30T15:01:53.690Z,5.43
2019-05-30T15:04:23.868Z,5.50
2019-05-30T15:06:54.079Z,5.03
2019-05-30T15:09:26.029Z,5.10
2019-05-30T15:11:56.219Z,4.97
2019-05-30T15:14:26.380Z,5.50
2019-05-30T15:16:56.561Z,4.93
2019-05-30T15:19:26.757Z,5.37
2019-05-30T15:21:57.128Z,5.80
2019-05-30T15:24:27.279Z,5.90
2019-05-30T15:26:57.585Z,5.83
2019-05-30T15:29:28.819Z,5.50
2019-05-30T15:32:00.051Z,5.30
2019-05-30T15:34:30.224Z,5.67
2019-05-30T15:37:00.424Z,4.73
2019-05-30T15:39:32.944Z,4.60
2019-05-30T15:42:03.517Z,4.67
2019-05-30T15:44:33.863Z,4.40
2019-05-30T15:47:04.031Z,5.10
2019-05-30T15:49:34.215Z,4.03
2019-05-30T15:52:04.369Z,4.50
2019-05-30T15:54:34.567Z,4.53
2019-05-30T15:57:04.747Z,5.03
2019-05-30T15:59:34.924Z,4.87
2019-05-30T16:02:05.325Z,4.93
2019-05-30T16:04:35.589Z,4.70
2019-05-30T16:07:05.797Z,4.73
2019-05-30T16:09:46.605Z,5.60
2019-05-30T16:12:07.837Z,4.57
2019-05-30T16:14:38.008Z,3.87
2019-05-30T16:17:08.251Z,3.67
2019-05-30T16:19:38.408Z,3.00
2019-05-30T16:22:08.577Z,3.30
2019-05-30T16:24:38.931Z,2.90
2019-05-30T16:27:09.254Z,3.47
2019-05-30T16:29:39.420Z,3.10
2019-05-30T16:32:09.612Z,3.40
2019-05-30T16:34:39.867Z,3.60
2019-05-30T16:37:10.036Z,4.30
2019-05-30T16:39:40.244Z,4.27
2019-05-30T16:42:10.504Z,3.90
2019-05-30T16:44:40.680Z,3.60
2019-05-30T16:47:10.869Z,3.40
2019-05-30T16:49:41.028Z,3.90
2019-05-30T16:52:11.213Z,3.30
2019-05-30T16:54:41.419Z,4.50
2019-05-30T16:57:11.716Z,4.10
2019-05-30T16:59:41.879Z,4.30
2019-05-30T17:02:12.436Z,3.83
2019-05-30T17:04:42.688Z,4.10
2019-05-30T17:07:13.023Z,4.50
2019-05-30T17:09:43.179Z,4.17
2019-05-30T17:12:15.460Z,3.73
2019-05-30T17:14:45.791Z,4.27
2019-05-30T17:17:16.288Z,3.97
2019-05-30T17:19:46.583Z,3.90
2019-05-30T17:22:16.911Z,3.03
2019-05-30T17:24:47.198Z,4.00
2019-05-30T17:27:17.386Z,3.80
2019-05-30T17:29:47.630Z,3.87
2019-05-30T17:32:17.849Z,3.70
2019-05-30T17:34:48.144Z,3.40
2019-05-30T17:37:18.408Z,3.47
2019-05-30T17:39:48.744Z,3.10
2019-05-30T17:42:18.931Z,3.10
2019-05-30T17:44:49.364Z,3.43
2019-05-30T17:47:19.909Z,3.40
2019-05-30T17:49:51.235Z,2.93
2019-05-30T17:52:21.752Z,3.00
2019-05-30T17:54:51.972Z,3.37
2019-05-30T17:57:22.204Z,3.07
2019-05-30T17:59:52.511Z,3.80
2019-05-30T18:02:22.710Z,3.63
2019-05-30T18:04:53.040Z,3.10
2019-05-30T18:07:23.311Z,3.67
2019-05-30T18:09:55.317Z,3.37
2019-05-30T18:12:25.638Z,3.50
2019-05-30T18:14:55.845Z,3.37
2019-05-30T18:17:27.146Z,4.13
2019-05-30T18:19:57.479Z,3.63
2019-05-30T18:22:27.746Z,3.33
2019-05-30T18:24:58.076Z,3.53
2019-05-30T18:27:28.256Z,3.67
2019-05-30T18:29:58.500Z,3.20
2019-05-30T18:32:28.649Z,3.50
2019-05-30T18:34:58.950Z,3.60
2019-05-30T18:37:30.505Z,4.20
2019-05-30T18:40:01.834Z,3.80
2019-05-30T18:42:33.645Z,3.40
2019-05-30T18:45:05.088Z,3.37
2019-05-30T18:47:36.347Z,4.10
2019-05-30T18:50:07.124Z,3.40
2019-05-30T18:52:37.349Z,3.40
2019-05-30T18:55:07.748Z,3.33
2019-05-30T18:57:38.050Z,3.43
2019-05-30T19:00:12.554Z,3.80
2019-05-30T19:02:42.023Z,3.30
2019-05-30T19:05:13.384Z,3.30
2019-05-30T19:07:43.566Z,4.00
2019-05-30T19:10:14.870Z,4.10
2019-05-30T19:12:45.087Z,4.23
2019-05-30T19:15:15.668Z,3.37
2019-05-30T19:17:45.868Z,3.40
2019-05-30T19:20:17.738Z,3.33
2019-05-30T19:22:48.050Z,3.20
2019-05-30T19:25:18.445Z,3.20
2019-05-30T19:27:49.619Z,2.70
2019-05-30T19:30:21.054Z,3.00
2019-05-30T19:32:51.318Z,3.03
2019-05-30T19:35:21.596Z,2.67
2019-05-30T19:37:51.902Z,3.60
2019-05-30T19:40:24.860Z,3.07
2019-05-30T19:42:54.287Z,2.60
2019-05-30T19:45:24.495Z,3.10
2019-05-30T19:47:54.850Z,2.80
2019-05-30T19:50:25.025Z,2.93
2019-05-30T19:52:55.267Z,2.80
2019-05-30T19:55:25.467Z,2.90
2019-05-30T19:57:55.851Z,2.20
2019-05-30T20:00:26.044Z,2.90
2019-05-30T20:02:56.367Z,2.30
2019-05-30T20:05:26.584Z,2.30
2019-05-30T20:07:56.791Z,2.30
2019-05-30T20:10:27.002Z,2.73
2019-05-30T20:12:57.387Z,2.67
2019-05-30T20:15:27.569Z,4.63
2019-05-30T20:17:57.780Z,2.40
2019-05-30T20:20:27.969Z,2.23
2019-05-30T20:22:58.178Z,2.60
2019-05-30T20:25:28.453Z,2.43
2019-05-30T20:27:58.619Z,3.00
2019-05-30T20:30:28.908Z,3.47
2019-05-30T20:32:59.089Z,2.80
2019-05-30T20:35:29.380Z,4.70
2019-05-30T20:38:01.622Z,3.17
2019-05-30T20:40:32.051Z,2.60
2019-05-30T20:43:02.430Z,2.93
2019-05-30T20:45:32.673Z,2.80
2019-05-30T20:48:02.848Z,2.60
2019-05-30T20:50:35.062Z,2.80
2019-05-30T20:53:10.173Z,2.63
2019-05-30T20:55:40.478Z,2.70
2019-05-30T20:58:10.760Z,2.47
2019-05-30T21:00:42.199Z,2.50
2019-05-30T21:03:12.523Z,2.10
2019-05-30T21:05:44.174Z,2.13
2019-05-30T21:08:15.724Z,2.47
2019-05-30T21:10:49.348Z,4.03
2019-05-30T21:13:20.594Z,2.23
2019-05-30T21:15:53.292Z,1.90
2019-05-30T21:18:24.953Z,2.10
2019-05-30T21:20:55.128Z,2.30
2019-05-30T21:23:25.300Z,2.70
2019-05-30T21:25:55.528Z,2.17
2019-05-30T21:28:25.668Z,2.10
2019-05-30T21:30:55.864Z,2.40
2019-05-30T21:33:26.152Z,2.00
2019-05-30T21:35:56.403Z,2.30
2019-05-30T21:38:26.535Z,2.30
2019-05-30T21:40:59.232Z,2.90
2019-05-30T21:43:29.424Z,2.07
2019-05-30T21:45:59.620Z,2.03
2019-05-30T21:48:29.795Z,3.60
2019-05-30T21:51:00.035Z,2.70
2019-05-30T21:53:30.181Z,2.60
2019-05-30T21:56:01.316Z,2.10
2019-05-30T21:58:31.556Z,2.27
2019-05-30T22:01:40.520Z,2.50
2019-05-30T22:04:10.927Z,2.27
2019-05-30T22:06:41.128Z,1.97
2019-05-30T22:09:12.489Z,2.40
2019-05-30T22:11:43.635Z,2.50
2019-05-30T22:14:13.933Z,2.63
2019-05-30T22:16:44.181Z,2.60
2019-05-30T22:19:14.459Z,2.70
2019-05-30T22:21:46.010Z,2.77
2019-05-30T22:24:16.424Z,2.43
2019-05-30T22:26:46.583Z,2.87
2019-05-30T22:29:16.778Z,2.50
2019-05-30T22:31:47.012Z,2.70
2019-05-30T22:34:17.198Z,2.60
2019-05-30T22:36:47.424Z,2.70
2019-05-30T22:39:17.592Z,2.50
2019-05-30T22:41:48.001Z,2.60
2019-05-30T22:44:18.284Z,2.67
2019-05-30T22:46:48.434Z,2.40
2019-05-30T22:49:18.593Z,2.90
2019-05-30T22:51:49.000Z,3.20
2019-05-30T22:54:19.209Z,2.70
2019-05-30T22:56:51.436Z,2.83
2019-05-30T22:59:21.787Z,2.40
2019-05-30T23:01:53.692Z,2.77
2019-05-30T23:04:24.058Z,2.70
2019-05-30T23:06:54.600Z,2.80
2019-05-30T23:09:25.879Z,2.60
2019-05-30T23:11:56.090Z,2.80
2019-05-30T23:14:26.389Z,3.03
2019-05-30T23:16:56.562Z,2.60
2019-05-30T23:19:26.718Z,2.70
2019-05-30T23:21:57.950Z,2.77
2019-05-30T23:24:28.189Z,3.20
2019-05-30T23:26:58.364Z,3.10
2019-05-30T23:29:28.511Z,2.63
2019-05-30T23:31:58.696Z,3.20
2019-05-30T23:34:28.860Z,2.50
2019-05-30T23:36:59.991Z,2.90
2019-05-30T23:39:30.232Z,3.00
2019-05-30T23:42:00.379Z,2.70
2019-05-30T23:44:30.528Z,3.30
2019-05-30T23:47:00.682Z,2.90
2019-05-30T23:49:30.861Z,2.97
2019-05-30T23:52:01.042Z,3.00
2019-05-30T23:54:31.187Z,2.80
2019-05-30T23:57:01.316Z,3.43
2019-05-30T23:59:31.494Z,3.17
